This is the latest recevied weather packets stored in our database for station/object N0HEQ. If no packets are shown the sender has not sent any weather packets the latest 10 day(s).
| Time | Temp. | Humidity | Pressure | Rain* | Wind** | Luminosity | Snow |
|---|---|---|---|---|---|---|---|
| 1777948035 | 11.67° C | 61% | 1013.5 hPa | 0 mm | - | 0 W/m² | - |
| 1777947731 | 11.67° C | 61% | 1013.2 hPa | 0 mm | - | 0 W/m² | - |
| 1777947428 | 11.67° C | 61% | 1013.4 hPa | 0 mm | - | 0 W/m² | - |
| 1777947125 | 11.67° C | 61% | 1013.4 hPa | 0 mm | - | 0 W/m² | - |
| 1777946821 | 11.67° C | 61% | 1013.2 hPa | 0 mm | - | 0 W/m² | - |
| 1777946517 | 12.22° C | 60% | 1013.3 hPa | 0 mm | - | 0 W/m² | - |
| 1777946214 | 11.67° C | 60% | 1013.4 hPa | 0 mm | - | 1 W/m² | - |
| 1777945911 | 11.67° C | 62% | 1013.6 hPa | 0 mm | - | 1 W/m² | - |
| 1777945608 | 11.67° C | 62% | 1013.3 hPa | 0 mm | - | 3 W/m² | - |
| 1777945305 | 12.22° C | 61% | 1013 hPa | 0 mm | - | 6 W/m² | - |
| 1777945002 | 12.22° C | 61% | 1012.8 hPa | 0 mm | - | 8 W/m² | - |
| 1777944699 | 12.22° C | 61% | 1012.9 hPa | 0 mm | - | 10 W/m² | - |
| 1777944397 | 12.22° C | 60% | 1013.2 hPa | 0 mm | - | 13 W/m² | - |
| 1777944094 | 12.22° C | 60% | 1013.2 hPa | 0 mm | - | 19 W/m² | - |
| 1777943790 | 12.78° C | 60% | 1012.9 hPa | 0 mm | - | 21 W/m² | - |
| 1777943488 | 12.78° C | 59% | 1013 hPa | 0 mm | - | 26 W/m² | - |
| 1777943187 | 12.78° C | 60% | 1013 hPa | 0 mm | - | 33 W/m² | - |
| 1777942885 | 12.78° C | 61% | 1012.9 hPa | 0 mm | - | 39 W/m² | - |
| 1777942581 | 12.78° C | 62% | 1013.2 hPa | 0 mm | - | 23 W/m² | - |
| 1777942278 | 13.33° C | 60% | 1013 hPa | 0 mm | - | 21 W/m² | - |
| 1777941975 | 13.89° C | 51% | 1013.2 hPa | 0 mm | - | 18 W/m² | - |
| 1777941672 | 14.44° C | 47% | 1012.9 hPa | 0 mm | - | 17 W/m² | - |
| 1777941369 | 15° C | 45% | 1013.2 hPa | 0 mm | - | 15 W/m² | - |
| 1777941066 | 15° C | 42% | 1012.7 hPa | 0 mm | - | 14 W/m² | - |
| 1777940762 | 15° C | 42% | 1012.7 hPa | 0 mm | - | 13 W/m² | - |
* Rain latest hour (hover to see other rain measurements)
** Current wind speed in m/s (hover to see current wind gust speed)